Time;durP1;ratioP1;P1;durP2;ratioP2;P2;SDS_P1;SDS_P2;PMS_P1;PMS_P2;Temp;Humidity;BMP_temperature;BMP_pressure;BME280_temperature;BME280_humidity;BME280_pressure;Samples;Min_cycle;Max_cycle;Signal;HPM_P1;HPM_P2
2022/01/26 00:07:45;;;;;;;16.63;10.60;;;;;;;;;;5028837;28;20229;-78
2022/01/26 00:10:10;;;;;;;16.87;10.33;;;;;;;;;;5007125;28;20178;-78
2022/01/26 00:12:35;;;;;;;18.13;11.00;;;;;;;;;;5006237;28;20190;-78
2022/01/26 00:15:01;;;;;;;16.40;11.37;;;;;;;;;;5009890;28;20246;-78
2022/01/26 00:17:26;;;;;;;20.33;12.33;;;;;;;;;;5010015;28;20266;-78
2022/01/26 00:19:58;;;;;;;23.43;12.77;;;;;;;;;;5005235;28;20206;-78
2022/01/26 00:22:57;;;;;;;20.10;11.80;;;;;;;;;;5003117;28;20190;-78
2022/01/26 00:27:57;;;;;;;17.87;10.93;;;;;;;;;;5027633;28;20180;-78
2022/01/26 00:38:43;;;;;;;22.33;12.30;;;;;;;;;;5045478;28;20442;-78
2022/01/26 00:41:18;;;;;;;19.93;12.00;;;;;;;;;;5027850;28;20186;-78
2022/01/26 00:43:48;;;;;;;18.97;11.00;;;;;;;;;;5022886;28;20189;-78
2022/01/26 00:46:14;;;;;;;15.50;10.43;;;;;;;;;;5025579;28;20253;-78
2022/01/26 00:48:41;;;;;;;14.87;9.27;;;;;;;;;;5026759;28;20244;-78
2022/01/26 00:51:07;;;;;;;15.07;10.07;;;;;;;;;;5025734;28;20174;-78
2022/01/26 00:53:35;;;;;;;16.77;9.63;;;;;;;;;;5046022;28;20177;-78
2022/01/26 00:56:01;;;;;;;15.33;9.83;;;;;;;;;;5037752;28;20233;-78
2022/01/26 00:58:26;;;;;;;19.30;9.63;;;;;;;;;;5027760;28;20257;-78
2022/01/26 01:00:52;;;;;;;17.07;10.07;;;;;;;;;;5049615;28;20178;-78
2022/01/26 01:03:18;;;;;;;19.43;10.67;;;;;;;;;;5026330;28;20279;-78
2022/01/26 01:05:52;;;;;;;16.83;9.57;;;;;;;;;;5033061;28;20178;-78
2022/01/26 01:08:21;;;;;;;17.27;9.20;;;;;;;;;;5021054;28;20433;-77
2022/01/26 01:10:49;;;;;;;16.20;9.80;;;;;;;;;;5030664;28;20186;-77
2022/01/26 01:13:18;;;;;;;15.80;10.07;;;;;;;;;;5030474;28;20213;-77
2022/01/26 01:15:44;;;;;;;17.33;10.33;;;;;;;;;;5045886;28;20175;-77
2022/01/26 01:18:17;;;;;;;16.93;10.37;;;;;;;;;;5028908;28;20185;-77
2022/01/26 01:31:40;;;;;;;14.20;9.47;;;;;;;;;;5042353;28;20216;-77
2022/01/26 01:34:04;;;;;;;15.83;10.57;;;;;;;;;;5043172;28;20193;-77
2022/01/26 01:36:30;;;;;;;13.23;8.97;;;;;;;;;;5045279;28;20271;-77
2022/01/26 01:38:55;;;;;;;17.83;9.53;;;;;;;;;;5030376;28;20198;-77
2022/01/26 01:41:21;;;;;;;14.63;8.90;;;;;;;;;;5029730;28;20174;-77
2022/01/26 01:43:46;;;;;;;15.67;9.13;;;;;;;;;;5022230;28;20167;-77
2022/01/26 01:46:11;;;;;;;15.40;8.87;;;;;;;;;;5046658;28;20162;-77
2022/01/26 01:48:36;;;;;;;17.17;8.87;;;;;;;;;;5033554;28;20174;-77
2022/01/26 01:51:05;;;;;;;13.90;7.97;;;;;;;;;;5045153;28;20194;-77
2022/01/26 01:53:36;;;;;;;13.20;7.37;;;;;;;;;;5033824;28;20170;-77
2022/01/26 01:56:02;;;;;;;9.23;6.73;;;;;;;;;;5034011;28;20193;-77
2022/01/26 01:58:28;;;;;;;11.67;7.40;;;;;;;;;;5048197;28;20178;-77
2022/01/26 02:00:53;;;;;;;10.23;7.43;;;;;;;;;;5030109;28;20256;-77
2022/01/26 02:03:18;;;;;;;14.27;8.00;;;;;;;;;;5026503;28;20189;-77
2022/01/26 02:05:43;;;;;;;11.93;7.53;;;;;;;;;;5032208;28;20184;-77
2022/01/26 02:08:09;;;;;;;13.70;8.00;;;;;;;;;;5034855;28;20167;-77
2022/01/26 02:10:35;;;;;;;11.10;6.80;;;;;;;;;;5019259;28;20317;-77
2022/01/26 02:13:04;;;;;;;14.33;7.73;;;;;;;;;;5018181;28;20266;-77
2022/01/26 02:15:49;;;;;;;11.47;7.63;;;;;;;;;;5019923;28;20237;-77
2022/01/26 02:56:10;;;;;;;9.57;6.17;;;;;;;;;;5048236;28;20177;-78
2022/01/26 02:59:09;;;;;;;7.60;6.17;;;;;;;;;;5029990;28;20185;-78
2022/01/26 03:04:48;;;;;;;9.97;6.83;;;;;;;;;;5042592;28;20191;-78
2022/01/26 03:07:16;;;;;;;8.70;6.10;;;;;;;;;;5038939;28;20194;-78
2022/01/26 03:09:45;;;;;;;10.40;6.73;;;;;;;;;;5038203;28;20194;-78
2022/01/26 03:12:13;;;;;;;13.03;7.47;;;;;;;;;;5036865;28;20173;-78
2022/01/26 03:14:50;;;;;;;10.13;6.13;;;;;;;;;;5031442;28;20248;-78
2022/01/26 03:19:45;;;;;;;7.90;5.35;;;;;;;;;;5046900;28;20206;-78
2022/01/26 03:30:05;;;;;;;7.13;6.07;;;;;;;;;;5043004;28;20166;-78
2022/01/26 03:35:15;;;;;;;8.40;6.03;;;;;;;;;;5048537;28;20361;-78
2022/01/26 03:37:49;;;;;;;10.30;7.43;;;;;;;;;;5023901;28;20171;-79
2022/01/26 03:40:15;;;;;;;10.10;7.23;;;;;;;;;;5033428;28;20229;-78
2022/01/26 03:42:40;;;;;;;9.10;6.73;;;;;;;;;;5028533;28;20166;-79
2022/01/26 03:45:06;;;;;;;9.60;6.57;;;;;;;;;;5029234;28;20237;-79
2022/01/26 03:47:31;;;;;;;9.73;7.20;;;;;;;;;;5015307;28;20176;-79
2022/01/26 03:49:56;;;;;;;6.37;5.30;;;;;;;;;;5027078;28;20179;-79
2022/01/26 03:52:21;;;;;;;9.17;7.40;;;;;;;;;;5026474;28;20179;-79
2022/01/26 03:54:46;;;;;;;8.50;6.67;;;;;;;;;;5028324;28;20178;-79
2022/01/26 03:57:12;;;;;;;8.30;6.97;;;;;;;;;;5024563;28;20217;-79
2022/01/26 03:59:37;;;;;;;9.70;7.27;;;;;;;;;;5030302;28;20191;-79
2022/01/26 04:02:02;;;;;;;7.67;6.13;;;;;;;;;;5030000;28;20186;-79
2022/01/26 04:04:31;;;;;;;9.03;6.40;;;;;;;;;;5022231;28;20174;-79
2022/01/26 04:06:59;;;;;;;9.30;6.33;;;;;;;;;;5023203;28;20190;-79
2022/01/26 04:09:25;;;;;;;9.83;7.03;;;;;;;;;;5026525;28;20191;-79
2022/01/26 04:11:50;;;;;;;8.50;6.53;;;;;;;;;;5031680;28;20178;-79
2022/01/26 04:14:19;;;;;;;9.90;7.00;;;;;;;;;;5036626;28;20171;-79
2022/01/26 04:16:44;;;;;;;8.87;6.00;;;;;;;;;;5027598;28;20208;-79
2022/01/26 04:19:10;;;;;;;10.73;7.77;;;;;;;;;;5040944;28;20234;-79
2022/01/26 04:21:53;;;;;;;7.70;5.93;;;;;;;;;;5032076;28;20194;-79
2022/01/26 04:24:26;;;;;;;9.73;6.77;;;;;;;;;;5025701;28;20266;-79
2022/01/26 04:27:00;;;;;;;8.00;5.97;;;;;;;;;;5043277;28;20183;-79
2022/01/26 04:29:28;;;;;;;8.20;6.17;;;;;;;;;;5028257;28;20183;-79
2022/01/26 04:31:54;;;;;;;9.93;6.47;;;;;;;;;;5013898;28;20194;-79
2022/01/26 04:34:20;;;;;;;10.47;6.90;;;;;;;;;;5029227;28;20202;-79
2022/01/26 04:36:52;;;;;;;9.13;6.70;;;;;;;;;;5031606;28;20226;-79
2022/01/26 04:39:23;;;;;;;11.30;8.43;;;;;;;;;;5032058;28;20202;-79
2022/01/26 04:41:54;;;;;;;9.03;6.87;;;;;;;;;;5017996;28;20172;-79
2022/01/26 04:44:25;;;;;;;8.23;6.07;;;;;;;;;;5019981;28;20173;-79
2022/01/26 04:46:51;;;;;;;8.87;6.60;;;;;;;;;;5021714;28;20261;-79
2022/01/26 04:49:16;;;;;;;10.03;6.97;;;;;;;;;;5027376;28;20289;-79
2022/01/26 04:51:42;;;;;;;8.73;6.60;;;;;;;;;;5025266;28;20183;-79
2022/01/26 04:54:10;;;;;;;11.90;7.83;;;;;;;;;;5023207;28;20177;-79
2022/01/26 04:56:35;;;;;;;9.17;6.90;;;;;;;;;;5042788;28;20178;-79
2022/01/26 04:59:00;;;;;;;10.43;7.80;;;;;;;;;;5031523;28;20232;-79
2022/01/26 05:01:26;;;;;;;10.17;6.87;;;;;;;;;;5022632;28;20174;-79
2022/01/26 05:03:51;;;;;;;10.43;7.40;;;;;;;;;;5031242;28;20174;-79
2022/01/26 05:06:16;;;;;;;10.03;6.90;;;;;;;;;;5021316;28;21848;-79
2022/01/26 05:08:41;;;;;;;12.60;7.40;;;;;;;;;;5028154;28;20179;-79
2022/01/26 05:11:09;;;;;;;11.57;7.73;;;;;;;;;;5025731;28;20178;-79
2022/01/26 05:13:35;;;;;;;13.63;8.13;;;;;;;;;;5026400;28;20218;-79
2022/01/26 05:16:00;;;;;;;11.77;7.40;;;;;;;;;;5030671;28;20190;-80
2022/01/26 05:18:25;;;;;;;11.93;7.37;;;;;;;;;;5027964;28;20190;-80
2022/01/26 05:20:51;;;;;;;13.17;8.47;;;;;;;;;;5029337;28;20190;-79
2022/01/26 05:23:16;;;;;;;11.97;8.17;;;;;;;;;;5034025;28;20174;-80
2022/01/26 05:25:41;;;;;;;10.50;7.50;;;;;;;;;;5028619;28;20174;-80
2022/01/26 05:28:06;;;;;;;10.73;7.33;;;;;;;;;;5031859;28;20213;-80
2022/01/26 05:30:32;;;;;;;11.87;7.53;;;;;;;;;;5032598;28;20177;-80
2022/01/26 05:32:57;;;;;;;12.50;7.83;;;;;;;;;;5047084;28;20201;-79
2022/01/26 05:35:22;;;;;;;12.13;7.20;;;;;;;;;;5051084;28;20257;-80
2022/01/26 05:37:47;;;;;;;10.37;7.67;;;;;;;;;;5031480;28;20183;-80
2022/01/26 05:40:13;;;;;;;10.63;7.37;;;;;;;;;;5027772;28;20201;-80
2022/01/26 05:42:38;;;;;;;10.07;6.90;;;;;;;;;;5027096;28;20266;-80
2022/01/26 05:45:07;;;;;;;10.53;6.63;;;;;;;;;;5029330;28;20198;-80
2022/01/26 05:47:34;;;;;;;9.33;6.60;;;;;;;;;;5031559;28;20178;-81
2022/01/26 05:49:59;;;;;;;11.13;6.63;;;;;;;;;;5051813;28;20186;-80
2022/01/26 05:52:25;;;;;;;11.47;7.20;;;;;;;;;;5035976;28;20178;-80
2022/01/26 05:54:50;;;;;;;24.13;15.07;;;;;;;;;;5032212;28;20190;-81
2022/01/26 05:57:15;;;;;;;10.77;7.50;;;;;;;;;;5048835;28;20220;-81
2022/01/26 05:59:40;;;;;;;9.40;6.27;;;;;;;;;;5034521;28;20265;-81
2022/01/26 06:02:06;;;;;;;14.73;8.87;;;;;;;;;;5033426;28;20174;-81
2022/01/26 06:04:31;;;;;;;13.77;8.53;;;;;;;;;;5035202;28;20225;-81
2022/01/26 06:06:57;;;;;;;10.77;6.50;;;;;;;;;;5023674;28;20267;-78
2022/01/26 06:09:22;;;;;;;14.60;8.03;;;;;;;;;;5031716;28;20182;-79
2022/01/26 06:11:47;;;;;;;14.93;8.93;;;;;;;;;;5027867;28;20179;-78
2022/01/26 06:14:12;;;;;;;14.70;9.13;;;;;;;;;;5049901;28;20178;-78
2022/01/26 06:16:38;;;;;;;17.77;9.50;;;;;;;;;;5027294;28;20250;-78
2022/01/26 06:19:03;;;;;;;17.53;9.97;;;;;;;;;;5027327;28;20228;-78
2022/01/26 06:21:28;;;;;;;22.77;11.33;;;;;;;;;;5034172;28;20174;-78
2022/01/26 06:23:53;;;;;;;35.10;16.20;;;;;;;;;;5030068;28;20184;-78
2022/01/26 06:26:18;;;;;;;16.03;9.17;;;;;;;;;;5028413;28;20185;-78
2022/01/26 06:28:44;;;;;;;16.83;9.33;;;;;;;;;;5026991;28;20179;-78
2022/01/26 06:31:11;;;;;;;19.23;10.37;;;;;;;;;;5031996;28;20182;-78
2022/01/26 06:33:40;;;;;;;16.87;10.17;;;;;;;;;;5028686;28;20229;-78
2022/01/26 06:36:06;;;;;;;19.60;10.97;;;;;;;;;;5019199;28;20573;-78
2022/01/26 06:38:31;;;;;;;28.70;15.60;;;;;;;;;;5009138;28;20179;-78
2022/01/26 06:40:57;;;;;;;26.07;16.23;;;;;;;;;;5019666;28;20201;-78
2022/01/26 06:43:25;;;;;;;17.37;10.97;;;;;;;;;;5014789;28;20186;-78
2022/01/26 06:45:57;;;;;;;23.10;13.17;;;;;;;;;;5004067;28;20174;-78
2022/01/26 06:50:56;;;;;;;19.97;12.07;;;;;;;;;;5035435;28;20189;-78
2022/01/26 06:53:21;;;;;;;26.07;12.60;;;;;;;;;;5012101;28;20201;-78
2022/01/26 06:55:46;;;;;;;25.37;15.43;;;;;;;;;;5016194;28;20228;-79
2022/01/26 06:58:12;;;;;;;31.03;14.10;;;;;;;;;;5026070;28;20259;-78
2022/01/26 07:00:37;;;;;;;25.00;15.57;;;;;;;;;;5009854;28;20207;-78
2022/01/26 07:03:02;;;;;;;23.07;13.93;;;;;;;;;;5013427;28;20170;-78
2022/01/26 07:05:28;;;;;;;22.90;13.40;;;;;;;;;;5011712;28;20174;-78
2022/01/26 07:07:53;;;;;;;19.47;12.30;;;;;;;;;;5008241;28;20190;-78
2022/01/26 07:10:19;;;;;;;21.67;13.73;;;;;;;;;;5012661;28;20186;-79
2022/01/26 07:12:44;;;;;;;20.27;12.67;;;;;;;;;;5020369;28;20185;-79
2022/01/26 07:23:05;;;;;;;19.60;11.37;;;;;;;;;;5022942;28;20175;-78
2022/01/26 07:25:31;;;;;;;20.33;11.70;;;;;;;;;;5011662;28;20179;-78
2022/01/26 07:27:57;;;;;;;19.07;11.10;;;;;;;;;;5014377;28;20175;-78
2022/01/26 07:30:22;;;;;;;20.87;12.93;;;;;;;;;;5008271;28;20206;-78
2022/01/26 07:32:48;;;;;;;24.97;11.80;;;;;;;;;;5007171;28;20228;-78
2022/01/26 07:35:13;;;;;;;27.80;13.67;;;;;;;;;;5018956;28;20241;-80
2022/01/26 07:37:38;;;;;;;28.03;13.50;;;;;;;;;;5028489;28;20194;-81
2022/01/26 07:40:06;;;;;;;22.13;10.50;;;;;;;;;;5022558;28;20194;-81
2022/01/26 07:42:32;;;;;;;30.43;17.33;;;;;;;;;;5026146;28;20174;-81
2022/01/26 07:44:57;;;;;;;28.73;14.63;;;;;;;;;;5031963;28;20261;-81
2022/01/26 07:47:23;;;;;;;28.33;14.63;;;;;;;;;;5033698;28;20181;-82
2022/01/26 07:49:49;;;;;;;28.63;16.43;;;;;;;;;;5026442;28;20173;-82
2022/01/26 07:52:15;;;;;;;25.20;8.70;;;;;;;;;;5009608;28;20190;-82
2022/01/26 07:54:40;;;;;;;28.83;13.37;;;;;;;;;;5032539;28;20178;-82
2022/01/26 07:57:07;;;;;;;26.47;14.10;;;;;;;;;;5032017;28;20220;-82
2022/01/26 07:59:32;;;;;;;28.67;14.00;;;;;;;;;;5041538;28;20201;-82
2022/01/26 08:01:57;;;;;;;14.60;7.50;;;;;;;;;;5021966;28;20179;-82
2022/01/26 08:04:23;;;;;;;25.90;14.13;;;;;;;;;;5032729;28;20174;-82
2022/01/26 08:06:48;;;;;;;31.33;16.27;;;;;;;;;;5038747;28;20165;-82
2022/01/26 08:09:13;;;;;;;25.53;13.13;;;;;;;;;;5026031;28;20187;-82
2022/01/26 08:11:38;;;;;;;26.60;12.30;;;;;;;;;;5024077;28;20197;-82
2022/01/26 08:14:03;;;;;;;20.63;9.23;;;;;;;;;;5028906;28;20309;-83
2022/01/26 08:16:29;;;;;;;32.93;14.37;;;;;;;;;;5028937;28;20188;-82
2022/01/26 08:18:54;;;;;;;36.67;19.30;;;;;;;;;;5285154;22;20186;-79
2022/01/26 08:24:15;;;;;;;31.63;16.37;;;;;;;;;;5258998;22;20251;-82
2022/01/26 08:26:45;;;;;;;24.57;14.40;;;;;;;;;;5036200;28;20181;-82
2022/01/26 08:29:18;;;;;;;30.57;13.50;;;;;;;;;;5050462;28;20189;-82
2022/01/26 08:31:44;;;;;;;28.53;14.80;;;;;;;;;;5050626;28;20174;-83
2022/01/26 08:34:09;;;;;;;25.30;12.33;;;;;;;;;;5043938;28;20201;-83
2022/01/26 08:36:34;;;;;;;31.80;16.47;;;;;;;;;;5049569;28;20253;-83
2022/01/26 08:39:00;;;;;;;33.10;15.73;;;;;;;;;;5051736;28;20225;-83
2022/01/26 08:41:25;;;;;;;29.40;16.27;;;;;;;;;;5052840;28;20177;-82
2022/01/26 08:43:50;;;;;;;33.70;14.47;;;;;;;;;;5052738;28;20207;-83
2022/01/26 08:46:17;;;;;;;27.43;14.50;;;;;;;;;;5044639;28;20193;-83
2022/01/26 08:48:43;;;;;;;28.20;15.50;;;;;;;;;;5047104;28;20166;-83
2022/01/26 08:51:08;;;;;;;30.40;16.87;;;;;;;;;;5055721;28;20175;-82
2022/01/26 08:53:33;;;;;;;28.43;14.57;;;;;;;;;;5064228;28;20177;-83
2022/01/26 08:55:58;;;;;;;30.23;16.03;;;;;;;;;;5048272;28;20178;-83
2022/01/26 08:58:24;;;;;;;32.20;15.87;;;;;;;;;;5060207;28;20177;-82
2022/01/26 09:00:49;;;;;;;31.03;15.20;;;;;;;;;;5048987;28;20206;-83
2022/01/26 09:03:14;;;;;;;30.40;15.03;;;;;;;;;;5053315;28;20222;-83
2022/01/26 09:05:39;;;;;;;26.80;14.37;;;;;;;;;;5049933;28;20189;-81
2022/01/26 09:08:05;;;;;;;29.63;15.53;;;;;;;;;;5053599;28;20182;-83
2022/01/26 09:10:33;;;;;;;26.60;13.80;;;;;;;;;;5053128;28;20173;-83
2022/01/26 09:12:58;;;;;;;26.87;14.43;;;;;;;;;;5052565;28;20181;-83
2022/01/26 09:15:29;;;;;;;32.27;15.40;;;;;;;;;;5055996;28;20270;-83
2022/01/26 09:17:55;;;;;;;23.50;12.20;;;;;;;;;;5051318;28;20597;-83
2022/01/26 09:20:20;;;;;;;26.73;12.90;;;;;;;;;;5056387;28;20215;-83
2022/01/26 09:22:46;;;;;;;29.13;14.97;;;;;;;;;;5057452;28;20198;-83
2022/01/26 09:25:11;;;;;;;25.77;14.83;;;;;;;;;;5058281;28;20214;-83
2022/01/26 09:27:36;;;;;;;29.43;16.27;;;;;;;;;;5053197;28;20177;-83
2022/01/26 09:30:03;;;;;;;34.73;15.83;;;;;;;;;;5055765;28;20248;-83
2022/01/26 09:32:28;;;;;;;28.53;15.17;;;;;;;;;;5046963;28;20217;-83
2022/01/26 09:34:53;;;;;;;27.40;15.03;;;;;;;;;;5045926;28;20202;-84
2022/01/26 09:37:19;;;;;;;34.37;16.53;;;;;;;;;;5068631;28;20185;-83
2022/01/26 09:39:45;;;;;;;30.87;17.10;;;;;;;;;;5053856;28;20201;-83
2022/01/26 09:42:11;;;;;;;28.73;16.17;;;;;;;;;;5063791;28;20166;-83
2022/01/26 09:44:36;;;;;;;27.67;16.13;;;;;;;;;;5048072;28;20175;-82
2022/01/26 09:47:03;;;;;;;25.23;13.30;;;;;;;;;;5048740;28;20181;-83
2022/01/26 09:49:33;;;;;;;26.33;15.73;;;;;;;;;;5067446;28;20197;-83
2022/01/26 09:52:02;;;;;;;26.90;15.70;;;;;;;;;;5071152;28;20192;-83
2022/01/26 09:54:30;;;;;;;33.97;17.10;;;;;;;;;;5048018;28;20178;-84
2022/01/26 09:57:00;;;;;;;29.83;14.03;;;;;;;;;;5050209;28;20277;-83
2022/01/26 09:59:25;;;;;;;22.57;13.60;;;;;;;;;;5051945;28;20277;-83
2022/01/26 10:01:51;;;;;;;32.53;16.10;;;;;;;;;;5049938;28;20272;-84
2022/01/26 10:04:24;;;;;;;29.47;16.13;;;;;;;;;;5061318;28;20225;-83
2022/01/26 10:07:03;;;;;;;35.00;17.40;;;;;;;;;;5050328;28;20273;-84
2022/01/26 10:17:35;;;;;;;27.93;15.07;;;;;;;;;;5067718;28;20193;-84
2022/01/26 10:20:03;;;;;;;29.47;15.07;;;;;;;;;;5045242;28;20202;-85
2022/01/26 10:22:29;;;;;;;36.33;18.17;;;;;;;;;;5053059;28;20178;-84
2022/01/26 10:25:02;;;;;;;34.87;18.50;;;;;;;;;;5051254;28;20292;-83
2022/01/26 10:27:39;;;;;;;33.00;17.27;;;;;;;;;;5053107;28;20189;-82
2022/01/26 10:30:06;;;;;;;31.83;17.07;;;;;;;;;;5035276;28;20183;-80
2022/01/26 10:32:38;;;;;;;31.57;16.83;;;;;;;;;;5030100;28;20243;-82
2022/01/26 10:35:05;;;;;;;35.93;18.23;;;;;;;;;;5035431;28;20184;-82
2022/01/26 10:37:30;;;;;;;34.93;19.10;;;;;;;;;;5027524;28;20279;-82
2022/01/26 10:40:17;;;;;;;39.10;19.57;;;;;;;;;;5047482;28;20278;-81
2022/01/26 10:43:11;;;;;;;29.40;15.20;;;;;;;;;;5032436;28;20201;-82
2022/01/26 10:45:52;;;;;;;35.30;18.27;;;;;;;;;;5023995;28;20232;-82
2022/01/26 10:48:39;;;;;;;39.53;17.83;;;;;;;;;;5044510;28;20239;-81
2022/01/26 10:53:47;;;;;;;23.93;14.17;;;;;;;;;;5053381;28;20208;-82
2022/01/26 10:56:13;;;;;;;23.90;13.50;;;;;;;;;;5025031;28;20185;-81
2022/01/26 10:58:38;;;;;;;23.23;12.80;;;;;;;;;;5033573;28;20172;-81
2022/01/26 11:01:04;;;;;;;28.63;14.33;;;;;;;;;;5033986;28;20215;-81
2022/01/26 11:03:30;;;;;;;28.00;12.77;;;;;;;;;;5025354;28;20422;-81
2022/01/26 11:05:55;;;;;;;24.60;10.47;;;;;;;;;;5026159;28;20219;-82
2022/01/26 11:08:21;;;;;;;34.30;14.03;;;;;;;;;;5028561;28;20189;-81
2022/01/26 11:10:47;;;;;;;22.57;13.23;;;;;;;;;;5026061;28;20229;-81
2022/01/26 11:13:22;;;;;;;10.77;6.73;;;;;;;;;;5032561;28;20219;-81
2022/01/26 11:15:47;;;;;;;18.23;10.00;;;;;;;;;;5033160;28;20223;-81
2022/01/26 11:18:21;;;;;;;20.57;11.97;;;;;;;;;;5029220;28;20203;-81
2022/01/26 11:20:50;;;;;;;14.83;6.07;;;;;;;;;;5026047;28;20214;-81
2022/01/26 11:23:20;;;;;;;10.40;7.10;;;;;;;;;;5031353;28;20225;-81
2022/01/26 11:25:49;;;;;;;20.07;9.57;;;;;;;;;;5054886;28;20577;-81
2022/01/26 11:28:22;;;;;;;19.03;11.00;;;;;;;;;;5053584;28;20220;-80
2022/01/26 11:30:49;;;;;;;22.40;13.60;;;;;;;;;;5046481;28;20185;-81
2022/01/26 11:33:15;;;;;;;23.33;13.27;;;;;;;;;;5048309;28;20237;-81
2022/01/26 11:35:45;;;;;;;22.30;12.20;;;;;;;;;;5070338;28;20182;-80
2022/01/26 11:47:03;;;;;;;22.67;11.47;;;;;;;;;;5079271;28;20216;-80
2022/01/26 11:49:36;;;;;;;20.27;11.77;;;;;;;;;;5042477;28;20175;-80
2022/01/26 11:52:01;;;;;;;21.77;12.13;;;;;;;;;;5053780;28;20334;-79
2022/01/26 11:54:39;;;;;;;9.47;5.40;;;;;;;;;;5052462;28;20235;-80
2022/01/26 11:57:10;;;;;;;21.17;11.87;;;;;;;;;;5049941;28;20193;-80
2022/01/26 11:59:42;;;;;;;22.07;10.23;;;;;;;;;;5055128;28;20202;-80
2022/01/26 12:02:35;;;;;;;7.57;4.90;;;;;;;;;;5074862;28;20238;-79
2022/01/26 12:05:01;;;;;;;19.00;11.40;;;;;;;;;;5075051;28;20224;-79
2022/01/26 12:07:27;;;;;;;16.47;9.00;;;;;;;;;;5053340;28;20194;-79
2022/01/26 12:09:52;;;;;;;17.47;9.67;;;;;;;;;;5049698;28;20180;-79
2022/01/26 12:12:21;;;;;;;18.03;10.40;;;;;;;;;;5050723;28;20178;-80
2022/01/26 12:15:08;;;;;;;13.60;9.57;;;;;;;;;;5048496;28;20173;-80
2022/01/26 12:17:39;;;;;;;6.83;5.07;;;;;;;;;;5052687;28;20303;-80
2022/01/26 12:37:06;;;;;;;6.43;3.93;;;;;;;;;;5070524;28;20182;-83
2022/01/26 12:42:36;;;;;;;18.53;10.67;;;;;;;;;;5074066;28;20180;-84
2022/01/26 12:45:03;;;;;;;15.13;7.93;;;;;;;;;;5063254;28;20193;-84
2022/01/26 12:47:30;;;;;;;17.93;10.83;;;;;;;;;;5053648;28;20254;-84
2022/01/26 12:49:55;;;;;;;20.03;11.33;;;;;;;;;;5047144;28;20198;-83
2022/01/26 12:52:21;;;;;;;17.60;11.10;;;;;;;;;;5052631;28;20181;-83
2022/01/26 12:54:46;;;;;;;19.43;10.37;;;;;;;;;;5045867;28;20260;-84
2022/01/26 12:57:13;;;;;;;17.40;9.40;;;;;;;;;;5052838;28;20175;-84
2022/01/26 12:59:38;;;;;;;27.93;13.40;;;;;;;;;;5053606;28;20208;-84
2022/01/26 13:02:03;;;;;;;24.60;13.60;;;;;;;;;;5052758;28;20173;-83
2022/01/26 13:04:29;;;;;;;22.37;12.40;;;;;;;;;;5048185;28;20162;-83
2022/01/26 13:06:54;;;;;;;30.63;15.03;;;;;;;;;;5043069;28;20225;-83
2022/01/26 13:09:19;;;;;;;26.77;14.10;;;;;;;;;;5049251;28;20204;-83
2022/01/26 13:11:46;;;;;;;32.70;15.13;;;;;;;;;;5045812;28;20261;-83
2022/01/26 13:14:19;;;;;;;25.07;13.77;;;;;;;;;;5050302;28;20181;-82
2022/01/26 13:19:55;;;;;;;24.80;13.07;;;;;;;;;;5064997;28;20259;-82
2022/01/26 13:22:56;;;;;;;24.73;13.27;;;;;;;;;;5051515;28;20232;-82
2022/01/26 13:25:31;;;;;;;29.10;14.07;;;;;;;;;;5046466;28;20190;-82
2022/01/26 13:28:13;;;;;;;26.33;15.50;;;;;;;;;;5040053;28;20183;-82
2022/01/26 13:33:36;;;;;;;23.70;13.37;;;;;;;;;;5043982;28;20202;-82
2022/01/26 13:52:19;;;;;;;18.07;10.03;;;;;;;;;;5048072;28;20181;-81
2022/01/26 13:59:50;;;;;;;20.93;11.57;;;;;;;;;;5049096;28;20214;-82
2022/01/26 14:02:18;;;;;;;18.77;11.23;;;;;;;;;;5053876;28;20201;-81
2022/01/26 14:04:46;;;;;;;22.93;12.30;;;;;;;;;;5057531;28;20216;-81
2022/01/26 14:07:11;;;;;;;14.43;10.33;;;;;;;;;;5050456;28;20170;-82
2022/01/26 14:09:37;;;;;;;15.67;9.70;;;;;;;;;;5037034;28;20181;-81
2022/01/26 14:12:03;;;;;;;13.60;7.47;;;;;;;;;;5035630;28;20201;-81
2022/01/26 14:14:41;;;;;;;10.63;7.03;;;;;;;;;;5034200;28;20178;-81
2022/01/26 14:17:14;;;;;;;15.60;7.67;;;;;;;;;;5027293;28;20186;-76
2022/01/26 14:23:14;;;;;;;19.07;8.97;;;;;;;;;;5054388;28;20259;-75
2022/01/26 14:27:50;;;;;;;16.03;8.67;;;;;;;;;;5045005;28;20202;-76
2022/01/26 14:30:45;;;;;;;13.40;6.43;;;;;;;;;;5049868;28;20182;-76
2022/01/26 14:33:42;;;;;;;6.20;4.53;;;;;;;;;;5030299;28;20209;-76
2022/01/26 15:19:24;;;;;;;23.83;11.00;;;;;;;;;;5046134;28;20197;-76
2022/01/26 15:30:14;;;;;;;33.73;9.70;;;;;;;;;;5067346;28;20269;-76
2022/01/26 15:51:18;;;;;;;20.57;10.97;;;;;;;;;;5074063;28;20230;-77
2022/01/26 16:18:40;;;;;;;22.53;12.30;;;;;;;;;;5070628;28;20307;-77
2022/01/26 18:33:17;;;;;;;26.33;13.10;;;;;;;;;;5060012;28;20596;-77
2022/01/26 18:46:49;;;;;;;13.17;6.93;;;;;;;;;;5062400;28;20270;-77
2022/01/26 18:49:17;;;;;;;24.83;11.03;;;;;;;;;;5065289;28;20205;-78
2022/01/26 18:51:48;;;;;;;17.17;9.63;;;;;;;;;;5047857;28;20211;-78
2022/01/26 18:54:14;;;;;;;22.93;11.40;;;;;;;;;;5048145;28;20178;-78
2022/01/26 18:56:41;;;;;;;17.90;9.07;;;;;;;;;;5048760;28;20209;-78
2022/01/26 18:59:06;;;;;;;18.17;10.77;;;;;;;;;;5051892;28;20664;-78
2022/01/26 19:01:32;;;;;;;20.07;10.67;;;;;;;;;;5067198;28;20176;-78
2022/01/26 19:03:57;;;;;;;15.60;9.50;;;;;;;;;;5066846;28;20224;-78
2022/01/26 19:06:23;;;;;;;14.90;9.50;;;;;;;;;;5047838;28;20671;-78
2022/01/26 19:08:48;;;;;;;20.23;10.17;;;;;;;;;;5058742;28;20174;-77
2022/01/26 19:11:15;;;;;;;19.47;11.07;;;;;;;;;;5048932;28;20177;-77
2022/01/26 19:13:43;;;;;;;20.97;11.20;;;;;;;;;;5048379;28;20215;-77
2022/01/26 19:16:23;;;;;;;19.23;10.97;;;;;;;;;;5042824;28;20179;-78
2022/01/26 19:19:06;;;;;;;17.90;9.23;;;;;;;;;;5049096;28;20172;-78
2022/01/26 19:21:51;;;;;;;17.10;9.77;;;;;;;;;;5052343;28;20204;-76
2022/01/26 19:24:34;;;;;;;18.07;10.80;;;;;;;;;;5034722;28;20226;-76
2022/01/26 19:27:08;;;;;;;20.53;11.53;;;;;;;;;;5043301;28;20257;-76
2022/01/26 19:29:57;;;;;;;16.83;10.43;;;;;;;;;;5029010;28;20184;-76
2022/01/26 19:46:10;;;;;;;19.23;10.93;;;;;;;;;;5048632;28;20207;-76
2022/01/26 19:51:19;;;;;;;14.97;9.20;;;;;;;;;;5051898;28;20187;-76
2022/01/26 19:53:44;;;;;;;14.47;9.10;;;;;;;;;;5047797;28;20178;-76
2022/01/26 19:56:10;;;;;;;19.57;10.60;;;;;;;;;;5029122;28;20273;-76
2022/01/26 19:58:35;;;;;;;18.20;10.57;;;;;;;;;;5050382;28;20293;-75
2022/01/26 20:01:01;;;;;;;15.10;9.30;;;;;;;;;;5032374;28;20294;-76
2022/01/26 20:03:28;;;;;;;18.63;9.80;;;;;;;;;;5032376;28;20243;-76
2022/01/26 20:05:55;;;;;;;15.53;9.83;;;;;;;;;;5050404;28;20224;-76
2022/01/26 20:08:32;;;;;;;15.73;10.27;;;;;;;;;;5034756;28;20170;-78
2022/01/26 20:11:03;;;;;;;18.27;8.53;;;;;;;;;;5019987;28;20201;-78
2022/01/26 20:13:32;;;;;;;18.87;11.50;;;;;;;;;;5029585;28;20187;-78
2022/01/26 20:15:59;;;;;;;17.43;9.47;;;;;;;;;;5029300;28;20293;-78
2022/01/26 20:18:24;;;;;;;18.67;10.00;;;;;;;;;;5022606;28;21604;-77
2022/01/26 20:20:50;;;;;;;15.43;9.13;;;;;;;;;;5030541;28;20205;-76
2022/01/26 20:23:16;;;;;;;17.13;10.17;;;;;;;;;;5033087;28;20211;-76
2022/01/26 20:25:43;;;;;;;19.97;9.70;;;;;;;;;;5045695;28;20221;-76
2022/01/26 20:28:10;;;;;;;18.03;10.40;;;;;;;;;;5047840;28;20232;-76
2022/01/26 20:30:39;;;;;;;16.83;9.00;;;;;;;;;;5046550;28;20185;-76
2022/01/26 20:33:04;;;;;;;16.87;9.93;;;;;;;;;;5051328;28;20211;-76
2022/01/26 20:35:30;;;;;;;14.70;9.53;;;;;;;;;;5062327;28;20186;-76
2022/01/26 20:37:55;;;;;;;19.87;9.83;;;;;;;;;;5064287;28;20419;-75
2022/01/26 20:40:20;;;;;;;22.93;11.93;;;;;;;;;;5047353;28;20213;-76
2022/01/26 20:42:46;;;;;;;19.87;10.03;;;;;;;;;;5064163;28;20174;-76
2022/01/26 20:45:12;;;;;;;18.27;9.20;;;;;;;;;;5048007;28;20187;-76
2022/01/26 20:47:38;;;;;;;18.90;9.27;;;;;;;;;;5047872;28;20177;-76
2022/01/26 20:50:04;;;;;;;20.97;11.53;;;;;;;;;;5065147;28;20207;-76
2022/01/26 20:52:30;;;;;;;17.87;10.17;;;;;;;;;;5046305;28;20184;-76
2022/01/26 20:54:59;;;;;;;20.00;11.27;;;;;;;;;;5054985;28;20186;-76
2022/01/26 20:57:24;;;;;;;13.83;8.20;;;;;;;;;;5043987;28;20483;-76
2022/01/26 20:59:49;;;;;;;12.00;7.60;;;;;;;;;;5066544;28;20229;-76
2022/01/26 21:02:15;;;;;;;18.80;9.57;;;;;;;;;;5067655;28;20175;-76
2022/01/26 21:04:40;;;;;;;18.00;9.80;;;;;;;;;;5065996;28;20173;-76
2022/01/26 21:07:05;;;;;;;17.20;9.33;;;;;;;;;;5057640;28;20233;-76
2022/01/26 21:09:30;;;;;;;16.40;9.80;;;;;;;;;;5053963;28;20192;-76
2022/01/26 21:11:56;;;;;;;19.27;10.07;;;;;;;;;;5062370;28;20189;-76
2022/01/26 21:14:21;;;;;;;15.37;9.27;;;;;;;;;;5050456;28;20209;-76
2022/01/26 21:16:46;;;;;;;19.13;10.43;;;;;;;;;;5047838;28;20194;-76
2022/01/26 21:19:11;;;;;;;15.47;9.37;;;;;;;;;;5056101;28;20179;-76
2022/01/26 21:21:36;;;;;;;12.97;8.10;;;;;;;;;;5050279;28;20264;-76
2022/01/26 21:24:02;;;;;;;16.40;9.40;;;;;;;;;;5049852;28;20236;-76
2022/01/26 21:26:27;;;;;;;15.10;8.67;;;;;;;;;;5055566;28;20180;-76
2022/01/26 21:28:53;;;;;;;15.70;8.43;;;;;;;;;;5054619;28;20178;-76
2022/01/26 21:31:18;;;;;;;14.07;8.00;;;;;;;;;;5065906;28;20177;-76